createdAt,value
2022-12-11T00:00:39.639Z,63.3
2022-12-11T00:05:33.921Z,62.8
2022-12-11T00:10:27.730Z,64.3
2022-12-11T00:15:22.465Z,64.2
2022-12-11T00:20:17.246Z,64.8
2022-12-11T00:25:12.102Z,65.4
2022-12-11T00:30:06.156Z,65.3
2022-12-11T00:35:00.887Z,65.8
2022-12-11T00:39:54.788Z,65.6
2022-12-11T00:44:49.521Z,65.4
2022-12-11T00:49:48.145Z,65.5
2022-12-11T00:54:38.847Z,65.1
2022-12-11T00:59:35.581Z,66.2
2022-12-11T01:04:30.179Z,66.3
2022-12-11T01:09:24.925Z,66
2022-12-11T01:14:19.668Z,66.1
2022-12-11T01:19:14.232Z,66
2022-12-11T01:24:08.741Z,66.1
2022-12-11T01:29:03.364Z,66
2022-12-11T01:33:57.777Z,66.6
2022-12-11T01:38:52.347Z,67.3
2022-12-11T01:43:46.734Z,67.1
2022-12-11T01:48:42.415Z,67.8
2022-12-11T01:53:35.839Z,68.2
2022-12-11T01:58:30.519Z,68.7
2022-12-11T02:03:24.798Z,68.7
2022-12-11T02:08:19.356Z,68.3
2022-12-11T02:13:14.015Z,68.6
2022-12-11T02:18:08.807Z,68.4
2022-12-11T02:23:03.209Z,68.3
2022-12-11T02:27:57.862Z,67.8
2022-12-11T02:32:52.357Z,67.3
2022-12-11T02:37:46.990Z,67.2
2022-12-11T02:42:41.669Z,66.9
2022-12-11T02:47:36.292Z,66.6
2022-12-11T02:52:30.803Z,66.5
2022-12-11T02:57:24.820Z,66.4
2022-12-11T03:02:19.618Z,66.7
2022-12-11T03:07:14.059Z,66
2022-12-11T03:12:08.464Z,66.3
2022-12-11T03:17:03.062Z,66.1
2022-12-11T03:21:57.857Z,66.6
2022-12-11T03:26:56.266Z,67.1
2022-12-11T03:31:46.946Z,67.5
2022-12-11T03:36:41.694Z,67.2
2022-12-11T03:41:36.273Z,67.1
2022-12-11T03:46:31.007Z,67.3
2022-12-11T03:51:25.456Z,67.4
2022-12-11T03:56:20.386Z,67.3
2022-12-11T04:01:14.879Z,67.2
2022-12-11T04:06:09.241Z,67.6
2022-12-11T04:11:03.633Z,67.4
2022-12-11T04:15:58.308Z,66.7
2022-12-11T04:20:52.845Z,67
2022-12-11T04:25:47.482Z,67.1
2022-12-11T04:30:42.383Z,67.1
2022-12-11T04:35:36.732Z,67.2
2022-12-11T04:40:31.606Z,67.1
2022-12-11T04:45:25.384Z,67.2
2022-12-11T04:50:19.992Z,67.2
2022-12-11T04:55:14.714Z,67.1
2022-12-11T05:00:09.332Z,67.3
2022-12-11T05:05:03.982Z,67.5
2022-12-11T05:09:58.752Z,66
2022-12-11T05:14:53.984Z,64.8
2022-12-11T05:19:48.947Z,63.4
2022-12-11T05:24:44.248Z,62.6
2022-12-11T05:29:39.457Z,61.9
2022-12-11T05:34:34.091Z,61.1
2022-12-11T05:44:24.253Z,59.4
2022-12-11T05:49:20.096Z,58.3
2022-12-11T05:54:20.783Z,56.5
2022-12-11T05:59:09.843Z,55.4
2022-12-11T06:04:04.880Z,54.3
2022-12-11T06:09:00.122Z,54
2022-12-11T06:13:54.833Z,54.4
2022-12-11T06:18:49.788Z,54.1
2022-12-11T06:23:44.167Z,54.2
2022-12-11T06:28:38.743Z,54.1
2022-12-11T06:33:33.337Z,54.4
2022-12-11T06:38:28.146Z,54.3
2022-12-11T06:43:22.026Z,53.4
2022-12-11T06:48:16.785Z,53.1
2022-12-11T06:53:11.540Z,54.3
2022-12-11T06:58:06.095Z,53.5
2022-12-11T07:03:00.882Z,54.3
2022-12-11T07:07:55.617Z,53.9
2022-12-11T07:12:50.159Z,51.1
2022-12-11T07:17:45.008Z,52.1
2022-12-11T07:22:44.758Z,53.1
2022-12-11T07:27:34.615Z,52.5
2022-12-11T07:32:29.443Z,54.5
2022-12-11T07:37:24.131Z,54.2
2022-12-11T07:42:19.120Z,53.7
2022-12-11T07:47:13.546Z,55
2022-12-11T07:52:08.354Z,54.3
2022-12-11T07:57:03.190Z,56.1
2022-12-11T08:01:58.292Z,55.9
2022-12-11T08:06:52.834Z,55.3
2022-12-11T08:11:47.494Z,55
2022-12-11T08:16:43.063Z,54.2
2022-12-11T08:21:38.344Z,53.1
2022-12-11T08:26:33.418Z,50.1
2022-12-11T08:31:28.206Z,50.9
2022-12-11T08:36:23.252Z,51
2022-12-11T08:41:17.895Z,51.2
2022-12-11T08:46:12.710Z,51.5
2022-12-11T08:51:07.316Z,51.6
2022-12-11T08:56:01.402Z,50.7
2022-12-11T09:00:56.014Z,51.5
2022-12-11T09:05:50.778Z,52.7
2022-12-11T09:10:45.530Z,52.1
2022-12-11T09:15:40.141Z,52.3
2022-12-11T09:20:35.078Z,52.3
2022-12-11T09:25:29.841Z,54.8
2022-12-11T09:30:24.474Z,54.6
2022-12-11T09:35:19.387Z,55.1
2022-12-11T09:40:14.108Z,55.1
2022-12-11T09:45:09.143Z,54
2022-12-11T09:50:00.339Z,46.3
2022-12-11T09:54:56.401Z,51.6
2022-12-11T09:59:52.254Z,52.4
2022-12-11T10:04:47.346Z,51.7
2022-12-11T10:09:42.303Z,51
2022-12-11T10:14:37.329Z,50.6
2022-12-11T10:19:32.638Z,50.2
2022-12-11T10:24:57.765Z,49.7
2022-12-11T10:29:22.893Z,49.3
2022-12-11T10:34:18.073Z,48.8
2022-12-11T10:39:13.102Z,48.5
2022-12-11T10:44:07.249Z,48.4
2022-12-11T10:49:02.305Z,48.9
2022-12-11T10:53:56.885Z,48.5
2022-12-11T10:58:51.462Z,49.1
2022-12-11T11:03:46.157Z,49.6
2022-12-11T11:08:40.965Z,49.5
2022-12-11T11:13:35.732Z,49.4
2022-12-11T11:18:30.563Z,49.4
2022-12-11T11:23:25.303Z,49.4
2022-12-11T11:28:19.936Z,49.3
2022-12-11T11:33:14.803Z,49.5
2022-12-11T11:38:08.925Z,49.6
2022-12-11T11:43:03.430Z,49.9
2022-12-11T11:47:57.523Z,50.4
2022-12-11T11:52:52.360Z,50.3
2022-12-11T11:57:46.550Z,50.4
2022-12-11T12:02:41.500Z,50.1
2022-12-11T12:07:35.982Z,50.5
2022-12-11T12:12:33.900Z,50.2
2022-12-11T12:17:25.590Z,50.2
2022-12-11T12:22:19.998Z,50.9
2022-12-11T12:27:43.567Z,50.8
2022-12-11T12:32:08.779Z,51.3
2022-12-11T12:37:04.034Z,52.2
2022-12-11T12:42:02.610Z,52.2
2022-12-11T12:46:54.287Z,52.1
2022-12-11T12:51:49.366Z,51.3
2022-12-11T12:56:44.445Z,51.4
2022-12-11T13:01:38.852Z,48.5
2022-12-11T13:06:33.580Z,49.8
2022-12-11T13:11:28.616Z,49.6
2022-12-11T13:16:22.877Z,49.8
2022-12-11T13:21:17.505Z,50.1
2022-12-11T13:26:12.113Z,50.6
2022-12-11T13:31:12.916Z,51.1
2022-12-11T13:36:01.442Z,50.7
2022-12-11T13:40:56.167Z,50.9
2022-12-11T13:45:51.011Z,51
2022-12-11T13:50:45.441Z,51.2
2022-12-11T13:55:40.183Z,51.8
2022-12-11T14:00:34.862Z,52.2
2022-12-11T14:05:29.198Z,52.6
2022-12-11T14:10:23.653Z,52.2
2022-12-11T14:15:18.491Z,53.8
2022-12-11T14:20:13.446Z,52.4
2022-12-11T14:25:10.722Z,54
2022-12-11T14:30:02.382Z,53
2022-12-11T14:34:57.037Z,52.8
2022-12-11T14:39:51.416Z,53
2022-12-11T14:44:46.217Z,53.1
2022-12-11T14:49:40.818Z,54.3
2022-12-11T14:54:35.374Z,52.5
2022-12-11T14:59:31.973Z,53.7
2022-12-11T15:04:24.421Z,54.3
2022-12-11T15:09:18.788Z,54.3
2022-12-11T15:14:13.577Z,54.5
2022-12-11T15:19:08.313Z,52.5
2022-12-11T15:24:03.530Z,53.6
2022-12-11T15:28:58.727Z,53.3
2022-12-11T15:33:53.681Z,52
2022-12-11T15:38:48.837Z,51.4
2022-12-11T15:43:43.928Z,50.9
2022-12-11T15:48:38.909Z,50.5
2022-12-11T15:53:33.719Z,49.9
2022-12-11T15:58:28.418Z,49.6
2022-12-11T16:03:23.340Z,49.6
2022-12-11T16:08:18.291Z,49.1
2022-12-11T16:13:13.038Z,49.1
2022-12-11T16:18:07.718Z,49.5
2022-12-11T16:23:02.199Z,49.3
2022-12-11T16:27:56.117Z,50
2022-12-11T16:32:50.764Z,50.1
2022-12-11T16:37:45.333Z,49.7
2022-12-11T16:42:40.036Z,50.7
2022-12-11T16:47:34.657Z,50.2
2022-12-11T16:52:29.273Z,49.8
2022-12-11T16:57:23.240Z,49.7
2022-12-11T17:02:17.753Z,50.4
2022-12-11T17:07:11.826Z,50.3
2022-12-11T17:12:06.790Z,50.9
2022-12-11T17:17:01.429Z,50.5
2022-12-11T17:21:55.948Z,51.3
2022-12-11T17:26:50.870Z,51.2
2022-12-11T17:31:45.586Z,52.1
2022-12-11T17:36:40.231Z,51.7
2022-12-11T17:41:34.876Z,52
2022-12-11T17:46:29.699Z,52.6
2022-12-11T17:51:23.534Z,52.6
2022-12-11T17:56:18.080Z,53.7
2022-12-11T18:01:12.782Z,53.4
2022-12-11T18:06:07.857Z,53.7
2022-12-11T18:11:08.649Z,53.4
2022-12-11T18:15:57.345Z,52.9
2022-12-11T18:20:52.348Z,52.3
2022-12-11T18:25:48.056Z,51.6
2022-12-11T18:30:43.374Z,50.9
2022-12-11T18:35:38.582Z,51
2022-12-11T18:40:33.219Z,50.8
2022-12-11T18:50:22.265Z,49.9
2022-12-11T18:55:17.082Z,50.7
2022-12-11T19:00:11.912Z,50.5
2022-12-11T19:05:06.360Z,50.3
2022-12-11T19:10:00.964Z,50.3
2022-12-11T19:14:55.655Z,50
2022-12-11T19:19:50.313Z,50.3
2022-12-11T19:24:45.280Z,50.1
2022-12-11T19:29:39.813Z,50.3
2022-12-11T19:34:34.690Z,50.3
2022-12-11T19:39:29.301Z,50.4
2022-12-11T19:44:23.961Z,50.5
2022-12-11T19:49:18.555Z,51.2
2022-12-11T19:54:13.465Z,51.7
2022-12-11T19:59:08.212Z,51.3
2022-12-11T20:04:02.761Z,51.8
2022-12-11T20:08:57.409Z,51.6
2022-12-11T20:13:51.774Z,51.3
2022-12-11T20:18:46.651Z,52.8
2022-12-11T20:23:41.294Z,52.5
2022-12-11T20:28:35.701Z,52.1
2022-12-11T20:33:30.387Z,52.1
2022-12-11T20:38:28.762Z,53.5
2022-12-11T20:43:20.392Z,53.7
2022-12-11T20:48:15.041Z,53.7
2022-12-11T20:53:09.450Z,53.7
2022-12-11T20:58:04.003Z,52.8
2022-12-11T21:02:58.658Z,53.6
2022-12-11T21:07:53.205Z,53.2
2022-12-11T21:12:47.697Z,53.2
2022-12-11T21:17:42.381Z,56.8
2022-12-11T21:22:37.372Z,55.2
2022-12-11T21:27:31.864Z,55.5
2022-12-11T21:32:32.492Z,56.2
2022-12-11T21:37:21.188Z,56.5
2022-12-11T21:42:15.553Z,56.9
2022-12-11T21:47:10.037Z,56.9
2022-12-11T21:52:04.483Z,57.5
2022-12-11T21:56:58.984Z,57.1
2022-12-11T22:01:53.568Z,57.4
2022-12-11T22:06:48.536Z,57.7
2022-12-11T22:11:42.323Z,57.8
2022-12-11T22:16:42.100Z,57.9
2022-12-11T22:21:31.059Z,58
2022-12-11T22:26:25.518Z,58.1
2022-12-11T22:31:20.040Z,58.5
2022-12-11T22:36:14.697Z,58.6
2022-12-11T22:41:09.462Z,59.2
2022-12-11T22:46:04.120Z,59.2
2022-12-11T22:50:58.769Z,59.2
2022-12-11T22:55:53.145Z,59
2022-12-11T23:00:47.635Z,59.6
2022-12-11T23:05:41.659Z,59.8
2022-12-11T23:10:36.015Z,59.7
2022-12-11T23:15:30.511Z,60.1
2022-12-11T23:20:25.495Z,60.2
2022-12-11T23:25:20.048Z,60.5
2022-12-11T23:30:14.740Z,60.9
2022-12-11T23:35:09.632Z,61
2022-12-11T23:40:04.293Z,61.3
2022-12-11T23:44:58.977Z,61.6
2022-12-11T23:49:53.558Z,61.9
2022-12-11T23:54:48.280Z,61.9
2022-12-11T23:59:42.769Z,62.3
